sensor_id;sensor_type;location;lat;lon;timestamp;P1;durP1;ratioP1;P2;durP2;ratioP2
53391;SDS011;41667;51.922;8.850;2024-03-08T00:02:11;28.73;;;11.48;;
53391;SDS011;41667;51.922;8.850;2024-03-08T00:04:37;22.60;;;10.30;;
53391;SDS011;41667;51.922;8.850;2024-03-08T00:07:02;23.63;;;10.90;;
53391;SDS011;41667;51.922;8.850;2024-03-08T00:09:28;27.90;;;11.60;;
53391;SDS011;41667;51.922;8.850;2024-03-08T00:11:53;22.40;;;10.73;;
53391;SDS011;41667;51.922;8.850;2024-03-08T00:14:18;23.80;;;10.88;;
53391;SDS011;41667;51.922;8.850;2024-03-08T00:16:44;18.65;;;11.57;;
53391;SDS011;41667;51.922;8.850;2024-03-08T00:19:09;20.42;;;12.23;;
53391;SDS011;41667;51.922;8.850;2024-03-08T00:21:35;23.55;;;11.32;;
53391;SDS011;41667;51.922;8.850;2024-03-08T00:24:00;22.98;;;11.95;;
53391;SDS011;41667;51.922;8.850;2024-03-08T00:26:26;26.27;;;10.63;;
53391;SDS011;41667;51.922;8.850;2024-03-08T00:28:51;15.93;;;9.63;;
53391;SDS011;41667;51.922;8.850;2024-03-08T00:31:16;24.25;;;10.88;;
53391;SDS011;41667;51.922;8.850;2024-03-08T00:33:42;16.65;;;10.18;;
53391;SDS011;41667;51.922;8.850;2024-03-08T00:36:07;19.23;;;10.80;;
53391;SDS011;41667;51.922;8.850;2024-03-08T00:38:32;17.27;;;11.23;;
53391;SDS011;41667;51.922;8.850;2024-03-08T00:40:59;15.07;;;9.00;;
53391;SDS011;41667;51.922;8.850;2024-03-08T00:43:24;18.35;;;11.68;;
53391;SDS011;41667;51.922;8.850;2024-03-08T00:45:49;19.73;;;11.82;;
53391;SDS011;41667;51.922;8.850;2024-03-08T00:48:15;22.98;;;12.02;;
53391;SDS011;41667;51.922;8.850;2024-03-08T00:50:40;16.50;;;9.98;;
53391;SDS011;41667;51.922;8.850;2024-03-08T00:53:05;22.58;;;11.85;;
53391;SDS011;41667;51.922;8.850;2024-03-08T00:55:30;24.08;;;11.52;;
53391;SDS011;41667;51.922;8.850;2024-03-08T00:57:56;18.80;;;10.57;;
53391;SDS011;41667;51.922;8.850;2024-03-08T01:00:21;17.40;;;11.75;;
53391;SDS011;41667;51.922;8.850;2024-03-08T01:02:47;22.70;;;11.07;;
53391;SDS011;41667;51.922;8.850;2024-03-08T01:05:12;14.77;;;9.40;;
53391;SDS011;41667;51.922;8.850;2024-03-08T01:07:38;18.15;;;11.40;;
53391;SDS011;41667;51.922;8.850;2024-03-08T01:10:03;22.25;;;11.32;;
53391;SDS011;41667;51.922;8.850;2024-03-08T01:12:29;17.08;;;10.70;;
53391;SDS011;41667;51.922;8.850;2024-03-08T01:14:55;15.57;;;9.57;;
53391;SDS011;41667;51.922;8.850;2024-03-08T01:17:20;21.77;;;10.85;;
53391;SDS011;41667;51.922;8.850;2024-03-08T01:19:45;18.63;;;12.43;;
53391;SDS011;41667;51.922;8.850;2024-03-08T01:22:11;20.50;;;11.10;;
53391;SDS011;41667;51.922;8.850;2024-03-08T01:24:36;22.27;;;12.52;;
53391;SDS011;41667;51.922;8.850;2024-03-08T01:27:02;24.15;;;12.32;;
53391;SDS011;41667;51.922;8.850;2024-03-08T01:29:27;22.65;;;12.05;;
53391;SDS011;41667;51.922;8.850;2024-03-08T01:31:54;23.40;;;11.68;;
53391;SDS011;41667;51.922;8.850;2024-03-08T01:34:19;20.65;;;11.65;;
53391;SDS011;41667;51.922;8.850;2024-03-08T01:36:45;30.15;;;11.75;;
53391;SDS011;41667;51.922;8.850;2024-03-08T01:39:10;20.60;;;12.93;;
53391;SDS011;41667;51.922;8.850;2024-03-08T01:41:35;22.65;;;12.73;;
53391;SDS011;41667;51.922;8.850;2024-03-08T01:44:01;26.63;;;13.30;;
53391;SDS011;41667;51.922;8.850;2024-03-08T01:46:27;15.05;;;10.25;;
53391;SDS011;41667;51.922;8.850;2024-03-08T01:48:54;23.02;;;12.93;;
53391;SDS011;41667;51.922;8.850;2024-03-08T01:51:19;16.02;;;9.15;;
53391;SDS011;41667;51.922;8.850;2024-03-08T01:53:45;19.58;;;11.75;;
53391;SDS011;41667;51.922;8.850;2024-03-08T01:56:11;27.13;;;12.15;;
53391;SDS011;41667;51.922;8.850;2024-03-08T01:58:38;18.13;;;10.13;;
53391;SDS011;41667;51.922;8.850;2024-03-08T02:01:06;32.88;;;11.40;;
53391;SDS011;41667;51.922;8.850;2024-03-08T02:03:32;29.00;;;13.63;;
53391;SDS011;41667;51.922;8.850;2024-03-08T02:05:57;27.98;;;12.52;;
53391;SDS011;41667;51.922;8.850;2024-03-08T02:08:23;20.27;;;11.55;;
53391;SDS011;41667;51.922;8.850;2024-03-08T02:10:49;18.48;;;10.85;;
53391;SDS011;41667;51.922;8.850;2024-03-08T02:13:14;27.48;;;12.98;;
53391;SDS011;41667;51.922;8.850;2024-03-08T02:15:56;19.10;;;12.02;;
53391;SDS011;41667;51.922;8.850;2024-03-08T02:18:24;23.33;;;12.43;;
53391;SDS011;41667;51.922;8.850;2024-03-08T02:25:47;21.00;;;10.52;;
53391;SDS011;41667;51.922;8.850;2024-03-08T02:28:12;16.20;;;10.38;;
53391;SDS011;41667;51.922;8.850;2024-03-08T02:30:38;26.75;;;12.63;;
53391;SDS011;41667;51.922;8.850;2024-03-08T02:33:07;18.38;;;11.68;;
53391;SDS011;41667;51.922;8.850;2024-03-08T02:35:34;22.80;;;12.55;;
53391;SDS011;41667;51.922;8.850;2024-03-08T02:38:00;22.70;;;13.25;;
53391;SDS011;41667;51.922;8.850;2024-03-08T02:40:25;28.35;;;13.35;;
53391;SDS011;41667;51.922;8.850;2024-03-08T02:42:50;25.98;;;14.55;;
53391;SDS011;41667;51.922;8.850;2024-03-08T02:45:16;19.52;;;13.63;;
53391;SDS011;41667;51.922;8.850;2024-03-08T02:47:41;17.23;;;11.57;;
53391;SDS011;41667;51.922;8.850;2024-03-08T02:50:06;24.20;;;11.23;;
53391;SDS011;41667;51.922;8.850;2024-03-08T02:52:36;26.10;;;12.20;;
53391;SDS011;41667;51.922;8.850;2024-03-08T02:55:03;24.90;;;12.60;;
53391;SDS011;41667;51.922;8.850;2024-03-08T02:57:31;16.77;;;12.05;;
53391;SDS011;41667;51.922;8.850;2024-03-08T02:59:56;28.70;;;12.15;;
53391;SDS011;41667;51.922;8.850;2024-03-08T03:02:24;21.20;;;12.25;;
53391;SDS011;41667;51.922;8.850;2024-03-08T03:04:49;22.83;;;12.80;;
53391;SDS011;41667;51.922;8.850;2024-03-08T03:07:15;17.92;;;12.50;;
53391;SDS011;41667;51.922;8.850;2024-03-08T03:09:40;24.67;;;12.73;;
53391;SDS011;41667;51.922;8.850;2024-03-08T03:12:05;25.08;;;12.00;;
53391;SDS011;41667;51.922;8.850;2024-03-08T03:14:34;26.98;;;12.75;;
53391;SDS011;41667;51.922;8.850;2024-03-08T03:17:00;21.60;;;12.48;;
53391;SDS011;41667;51.922;8.850;2024-03-08T03:19:27;26.63;;;13.18;;
53391;SDS011;41667;51.922;8.850;2024-03-08T03:21:54;22.15;;;11.70;;
53391;SDS011;41667;51.922;8.850;2024-03-08T03:24:19;21.48;;;12.50;;
53391;SDS011;41667;51.922;8.850;2024-03-08T03:26:46;23.15;;;11.80;;
53391;SDS011;41667;51.922;8.850;2024-03-08T03:29:13;26.10;;;13.55;;
53391;SDS011;41667;51.922;8.850;2024-03-08T03:31:38;25.67;;;13.32;;
53391;SDS011;41667;51.922;8.850;2024-03-08T03:34:05;19.30;;;12.00;;
53391;SDS011;41667;51.922;8.850;2024-03-08T03:36:33;21.42;;;12.38;;
53391;SDS011;41667;51.922;8.850;2024-03-08T03:39:00;29.33;;;13.00;;
53391;SDS011;41667;51.922;8.850;2024-03-08T03:41:37;25.80;;;13.00;;
53391;SDS011;41667;51.922;8.850;2024-03-08T03:44:03;25.73;;;14.55;;
53391;SDS011;41667;51.922;8.850;2024-03-08T03:46:29;15.48;;;10.57;;
53391;SDS011;41667;51.922;8.850;2024-03-08T03:48:54;19.70;;;12.70;;
53391;SDS011;41667;51.922;8.850;2024-03-08T03:51:20;16.95;;;11.73;;
53391;SDS011;41667;51.922;8.850;2024-03-08T03:53:46;24.60;;;12.50;;
53391;SDS011;41667;51.922;8.850;2024-03-08T03:56:11;28.40;;;13.52;;
53391;SDS011;41667;51.922;8.850;2024-03-08T03:58:37;21.90;;;12.68;;
53391;SDS011;41667;51.922;8.850;2024-03-08T04:01:04;21.60;;;12.63;;
53391;SDS011;41667;51.922;8.850;2024-03-08T04:03:29;24.95;;;12.95;;
53391;SDS011;41667;51.922;8.850;2024-03-08T04:05:54;22.90;;;14.35;;
53391;SDS011;41667;51.922;8.850;2024-03-08T04:08:20;27.70;;;15.18;;
53391;SDS011;41667;51.922;8.850;2024-03-08T04:10:45;20.25;;;11.52;;
53391;SDS011;41667;51.922;8.850;2024-03-08T04:13:11;21.60;;;10.57;;
53391;SDS011;41667;51.922;8.850;2024-03-08T04:15:36;18.67;;;11.27;;
53391;SDS011;41667;51.922;8.850;2024-03-08T04:18:02;23.98;;;12.85;;
53391;SDS011;41667;51.922;8.850;2024-03-08T04:20:28;21.20;;;11.98;;
53391;SDS011;41667;51.922;8.850;2024-03-08T04:22:53;22.02;;;12.05;;
53391;SDS011;41667;51.922;8.850;2024-03-08T04:25:19;26.73;;;12.18;;
53391;SDS011;41667;51.922;8.850;2024-03-08T04:27:45;19.25;;;11.38;;
53391;SDS011;41667;51.922;8.850;2024-03-08T04:30:11;15.20;;;10.98;;
53391;SDS011;41667;51.922;8.850;2024-03-08T04:32:37;27.17;;;13.13;;
53391;SDS011;41667;51.922;8.850;2024-03-08T04:35:02;22.67;;;13.20;;
53391;SDS011;41667;51.922;8.850;2024-03-08T04:37:28;19.33;;;12.18;;
53391;SDS011;41667;51.922;8.850;2024-03-08T04:39:56;25.30;;;13.13;;
53391;SDS011;41667;51.922;8.850;2024-03-08T04:42:22;21.70;;;12.68;;
53391;SDS011;41667;51.922;8.850;2024-03-08T04:44:47;22.27;;;11.32;;
53391;SDS011;41667;51.922;8.850;2024-03-08T04:47:12;24.05;;;12.70;;
53391;SDS011;41667;51.922;8.850;2024-03-08T04:49:38;23.58;;;12.57;;
53391;SDS011;41667;51.922;8.850;2024-03-08T04:52:03;18.77;;;12.07;;
53391;SDS011;41667;51.922;8.850;2024-03-08T04:54:29;21.17;;;11.95;;
53391;SDS011;41667;51.922;8.850;2024-03-08T04:56:55;21.73;;;12.80;;
53391;SDS011;41667;51.922;8.850;2024-03-08T04:59:20;17.88;;;9.88;;
53391;SDS011;41667;51.922;8.850;2024-03-08T05:01:46;24.20;;;13.60;;
53391;SDS011;41667;51.922;8.850;2024-03-08T05:04:12;21.42;;;12.10;;
53391;SDS011;41667;51.922;8.850;2024-03-08T05:06:37;23.42;;;11.95;;
53391;SDS011;41667;51.922;8.850;2024-03-08T05:09:03;23.33;;;12.68;;
53391;SDS011;41667;51.922;8.850;2024-03-08T05:11:41;19.67;;;11.60;;
53391;SDS011;41667;51.922;8.850;2024-03-08T05:14:09;22.55;;;12.75;;
53391;SDS011;41667;51.922;8.850;2024-03-08T05:16:35;22.58;;;14.05;;
53391;SDS011;41667;51.922;8.850;2024-03-08T05:19:01;24.48;;;13.25;;
53391;SDS011;41667;51.922;8.850;2024-03-08T05:21:26;22.20;;;11.07;;
53391;SDS011;41667;51.922;8.850;2024-03-08T05:23:52;23.20;;;12.70;;
53391;SDS011;41667;51.922;8.850;2024-03-08T05:26:17;23.13;;;13.32;;
53391;SDS011;41667;51.922;8.850;2024-03-08T05:28:42;27.52;;;13.70;;
53391;SDS011;41667;51.922;8.850;2024-03-08T05:31:08;19.95;;;13.52;;
53391;SDS011;41667;51.922;8.850;2024-03-08T05:33:33;19.63;;;11.70;;
53391;SDS011;41667;51.922;8.850;2024-03-08T05:36:01;25.40;;;14.18;;
53391;SDS011;41667;51.922;8.850;2024-03-08T05:38:27;24.48;;;12.80;;
53391;SDS011;41667;51.922;8.850;2024-03-08T05:40:53;22.65;;;13.07;;
53391;SDS011;41667;51.922;8.850;2024-03-08T05:43:18;29.25;;;14.85;;
53391;SDS011;41667;51.922;8.850;2024-03-08T05:45:44;23.25;;;12.48;;
53391;SDS011;41667;51.922;8.850;2024-03-08T05:48:10;34.00;;;14.30;;
53391;SDS011;41667;51.922;8.850;2024-03-08T05:50:37;27.98;;;13.35;;
53391;SDS011;41667;51.922;8.850;2024-03-08T05:53:03;17.13;;;10.77;;
53391;SDS011;41667;51.922;8.850;2024-03-08T05:55:31;23.38;;;11.50;;
53391;SDS011;41667;51.922;8.850;2024-03-08T05:57:59;23.55;;;12.02;;
53391;SDS011;41667;51.922;8.850;2024-03-08T06:00:26;22.48;;;13.63;;
53391;SDS011;41667;51.922;8.850;2024-03-08T06:02:51;29.85;;;14.70;;
53391;SDS011;41667;51.922;8.850;2024-03-08T06:05:16;23.45;;;12.02;;
53391;SDS011;41667;51.922;8.850;2024-03-08T06:07:42;19.42;;;12.50;;
53391;SDS011;41667;51.922;8.850;2024-03-08T06:10:08;25.15;;;13.02;;
53391;SDS011;41667;51.922;8.850;2024-03-08T06:12:35;16.90;;;13.35;;
53391;SDS011;41667;51.922;8.850;2024-03-08T06:15:05;23.90;;;13.43;;
53391;SDS011;41667;51.922;8.850;2024-03-08T06:17:31;25.45;;;12.60;;
53391;SDS011;41667;51.922;8.850;2024-03-08T06:19:56;20.85;;;11.73;;
53391;SDS011;41667;51.922;8.850;2024-03-08T06:22:21;24.10;;;14.27;;
53391;SDS011;41667;51.922;8.850;2024-03-08T06:24:46;31.25;;;14.52;;
53391;SDS011;41667;51.922;8.850;2024-03-08T06:27:12;31.00;;;14.43;;
53391;SDS011;41667;51.922;8.850;2024-03-08T06:29:38;24.73;;;12.35;;
53391;SDS011;41667;51.922;8.850;2024-03-08T06:32:04;23.23;;;12.23;;
53391;SDS011;41667;51.922;8.850;2024-03-08T06:34:29;24.08;;;14.60;;
53391;SDS011;41667;51.922;8.850;2024-03-08T06:36:58;30.15;;;14.85;;
53391;SDS011;41667;51.922;8.850;2024-03-08T06:39:25;27.00;;;14.30;;
53391;SDS011;41667;51.922;8.850;2024-03-08T06:41:51;21.42;;;14.45;;
53391;SDS011;41667;51.922;8.850;2024-03-08T06:44:16;23.48;;;13.65;;
53391;SDS011;41667;51.922;8.850;2024-03-08T06:46:41;19.70;;;12.38;;
53391;SDS011;41667;51.922;8.850;2024-03-08T06:49:07;25.95;;;13.80;;
53391;SDS011;41667;51.922;8.850;2024-03-08T06:51:34;25.23;;;13.45;;
53391;SDS011;41667;51.922;8.850;2024-03-08T06:53:59;28.45;;;15.65;;
53391;SDS011;41667;51.922;8.850;2024-03-08T06:56:24;24.17;;;14.13;;
53391;SDS011;41667;51.922;8.850;2024-03-08T06:58:50;29.67;;;15.38;;
53391;SDS011;41667;51.922;8.850;2024-03-08T07:01:15;28.40;;;14.85;;
53391;SDS011;41667;51.922;8.850;2024-03-08T07:03:42;27.65;;;15.13;;
53391;SDS011;41667;51.922;8.850;2024-03-08T07:06:10;26.90;;;13.88;;
53391;SDS011;41667;51.922;8.850;2024-03-08T07:08:36;25.45;;;13.60;;
53391;SDS011;41667;51.922;8.850;2024-03-08T07:11:01;27.58;;;15.48;;
53391;SDS011;41667;51.922;8.850;2024-03-08T07:13:26;29.65;;;15.82;;
53391;SDS011;41667;51.922;8.850;2024-03-08T07:15:55;35.28;;;15.57;;
53391;SDS011;41667;51.922;8.850;2024-03-08T07:18:20;25.48;;;14.10;;
53391;SDS011;41667;51.922;8.850;2024-03-08T07:20:47;32.42;;;16.67;;
53391;SDS011;41667;51.922;8.850;2024-03-08T07:23:12;30.27;;;16.58;;
53391;SDS011;41667;51.922;8.850;2024-03-08T07:25:57;29.52;;;17.17;;
53391;SDS011;41667;51.922;8.850;2024-03-08T07:28:23;33.83;;;16.83;;
53391;SDS011;41667;51.922;8.850;2024-03-08T07:30:48;32.50;;;16.63;;
53391;SDS011;41667;51.922;8.850;2024-03-08T07:33:13;29.38;;;15.10;;
53391;SDS011;41667;51.922;8.850;2024-03-08T07:35:39;30.15;;;16.77;;
53391;SDS011;41667;51.922;8.850;2024-03-08T07:38:05;33.65;;;16.27;;
53391;SDS011;41667;51.922;8.850;2024-03-08T07:40:40;27.42;;;15.73;;
53391;SDS011;41667;51.922;8.850;2024-03-08T07:43:09;23.25;;;13.43;;
53391;SDS011;41667;51.922;8.850;2024-03-08T07:45:35;24.88;;;13.35;;
53391;SDS011;41667;51.922;8.850;2024-03-08T07:48:01;31.30;;;15.68;;
53391;SDS011;41667;51.922;8.850;2024-03-08T07:50:27;30.52;;;14.82;;
53391;SDS011;41667;51.922;8.850;2024-03-08T07:52:53;26.15;;;13.68;;
53391;SDS011;41667;51.922;8.850;2024-03-08T07:55:19;28.38;;;14.82;;
53391;SDS011;41667;51.922;8.850;2024-03-08T07:57:44;27.27;;;15.05;;
53391;SDS011;41667;51.922;8.850;2024-03-08T08:00:10;20.00;;;11.48;;
53391;SDS011;41667;51.922;8.850;2024-03-08T08:02:36;25.55;;;13.43;;
53391;SDS011;41667;51.922;8.850;2024-03-08T08:05:01;29.98;;;13.98;;
53391;SDS011;41667;51.922;8.850;2024-03-08T08:07:27;23.92;;;14.90;;
53391;SDS011;41667;51.922;8.850;2024-03-08T08:09:52;26.60;;;14.32;;
53391;SDS011;41667;51.922;8.850;2024-03-08T08:12:18;31.00;;;14.80;;
53391;SDS011;41667;51.922;8.850;2024-03-08T08:14:43;21.95;;;12.23;;
53391;SDS011;41667;51.922;8.850;2024-03-08T08:17:08;27.00;;;13.93;;
53391;SDS011;41667;51.922;8.850;2024-03-08T08:19:34;32.47;;;15.43;;
53391;SDS011;41667;51.922;8.850;2024-03-08T08:22:00;20.70;;;12.52;;
53391;SDS011;41667;51.922;8.850;2024-03-08T08:24:27;31.63;;;14.02;;
53391;SDS011;41667;51.922;8.850;2024-03-08T08:26:52;20.95;;;13.15;;
53391;SDS011;41667;51.922;8.850;2024-03-08T08:29:17;26.60;;;14.45;;
53391;SDS011;41667;51.922;8.850;2024-03-08T08:31:43;22.45;;;12.30;;
53391;SDS011;41667;51.922;8.850;2024-03-08T08:34:11;33.22;;;14.80;;
53391;SDS011;41667;51.922;8.850;2024-03-08T08:36:37;28.33;;;14.77;;
53391;SDS011;41667;51.922;8.850;2024-03-08T08:39:03;25.33;;;13.45;;
53391;SDS011;41667;51.922;8.850;2024-03-08T08:41:30;28.05;;;13.52;;
53391;SDS011;41667;51.922;8.850;2024-03-08T08:43:55;24.30;;;13.25;;
53391;SDS011;41667;51.922;8.850;2024-03-08T08:46:20;24.67;;;13.73;;
53391;SDS011;41667;51.922;8.850;2024-03-08T08:48:46;24.40;;;12.23;;
53391;SDS011;41667;51.922;8.850;2024-03-08T08:51:11;23.98;;;13.07;;
53391;SDS011;41667;51.922;8.850;2024-03-08T08:53:37;27.92;;;13.38;;
53391;SDS011;41667;51.922;8.850;2024-03-08T08:56:03;19.05;;;11.10;;
53391;SDS011;41667;51.922;8.850;2024-03-08T08:58:29;21.65;;;11.95;;
53391;SDS011;41667;51.922;8.850;2024-03-08T09:00:54;24.77;;;12.77;;
53391;SDS011;41667;51.922;8.850;2024-03-08T09:03:19;29.77;;;14.20;;
53391;SDS011;41667;51.922;8.850;2024-03-08T09:05:45;23.83;;;11.52;;
53391;SDS011;41667;51.922;8.850;2024-03-08T09:08:10;24.98;;;12.27;;
53391;SDS011;41667;51.922;8.850;2024-03-08T09:10:36;26.50;;;14.75;;
53391;SDS011;41667;51.922;8.850;2024-03-08T09:13:01;25.00;;;14.07;;
53391;SDS011;41667;51.922;8.850;2024-03-08T09:15:29;19.17;;;10.23;;
53391;SDS011;41667;51.922;8.850;2024-03-08T09:17:54;16.08;;;9.52;;
53391;SDS011;41667;51.922;8.850;2024-03-08T09:20:20;29.08;;;14.60;;
53391;SDS011;41667;51.922;8.850;2024-03-08T09:22:45;25.50;;;13.57;;
53391;SDS011;41667;51.922;8.850;2024-03-08T09:25:11;26.23;;;14.75;;
53391;SDS011;41667;51.922;8.850;2024-03-08T09:27:36;21.25;;;13.35;;
53391;SDS011;41667;51.922;8.850;2024-03-08T09:30:02;21.70;;;11.38;;
53391;SDS011;41667;51.922;8.850;2024-03-08T09:32:27;23.98;;;12.13;;
53391;SDS011;41667;51.922;8.850;2024-03-08T09:34:53;29.10;;;12.02;;
53391;SDS011;41667;51.922;8.850;2024-03-08T09:37:18;31.30;;;13.65;;
53391;SDS011;41667;51.922;8.850;2024-03-08T09:39:44;12.40;;;7.60;;
53391;SDS011;41667;51.922;8.850;2024-03-08T09:42:09;28.65;;;13.90;;
53391;SDS011;41667;51.922;8.850;2024-03-08T09:44:35;21.95;;;12.60;;
53391;SDS011;41667;51.922;8.850;2024-03-08T09:47:01;26.65;;;9.65;;
53391;SDS011;41667;51.922;8.850;2024-03-08T09:49:29;22.20;;;11.93;;
53391;SDS011;41667;51.922;8.850;2024-03-08T09:51:55;18.77;;;11.02;;
53391;SDS011;41667;51.922;8.850;2024-03-08T09:54:20;20.92;;;12.20;;
53391;SDS011;41667;51.922;8.850;2024-03-08T09:56:47;20.38;;;9.73;;
53391;SDS011;41667;51.922;8.850;2024-03-08T09:59:14;22.95;;;12.05;;
53391;SDS011;41667;51.922;8.850;2024-03-08T10:01:58;17.38;;;11.10;;
53391;SDS011;41667;51.922;8.850;2024-03-08T10:04:24;21.58;;;11.57;;
53391;SDS011;41667;51.922;8.850;2024-03-08T10:06:51;23.85;;;12.48;;
53391;SDS011;41667;51.922;8.850;2024-03-08T10:09:17;22.10;;;10.63;;
53391;SDS011;41667;51.922;8.850;2024-03-08T10:11:42;22.23;;;12.55;;
53391;SDS011;41667;51.922;8.850;2024-03-08T10:14:10;19.90;;;11.45;;
53391;SDS011;41667;51.922;8.850;2024-03-08T10:16:36;19.35;;;11.75;;
53391;SDS011;41667;51.922;8.850;2024-03-08T10:19:01;16.33;;;8.85;;
53391;SDS011;41667;51.922;8.850;2024-03-08T10:21:28;19.83;;;11.55;;
53391;SDS011;41667;51.922;8.850;2024-03-08T10:23:53;17.95;;;10.90;;
53391;SDS011;41667;51.922;8.850;2024-03-08T10:26:19;23.15;;;11.00;;
53391;SDS011;41667;51.922;8.850;2024-03-08T10:28:50;22.63;;;12.63;;
53391;SDS011;41667;51.922;8.850;2024-03-08T10:31:17;16.95;;;11.35;;
53391;SDS011;41667;51.922;8.850;2024-03-08T10:33:44;19.95;;;12.18;;
53391;SDS011;41667;51.922;8.850;2024-03-08T10:36:10;22.58;;;12.45;;
53391;SDS011;41667;51.922;8.850;2024-03-08T10:38:41;21.25;;;12.05;;
53391;SDS011;41667;51.922;8.850;2024-03-08T10:41:07;20.13;;;11.90;;
53391;SDS011;41667;51.922;8.850;2024-03-08T10:48:47;21.92;;;12.93;;
53391;SDS011;41667;51.922;8.850;2024-03-08T10:51:14;22.48;;;12.05;;
53391;SDS011;41667;51.922;8.850;2024-03-08T10:53:40;22.95;;;10.90;;
53391;SDS011;41667;51.922;8.850;2024-03-08T10:56:06;15.82;;;9.40;;
53391;SDS011;41667;51.922;8.850;2024-03-08T10:58:32;19.60;;;10.82;;
53391;SDS011;41667;51.922;8.850;2024-03-08T11:00:59;20.38;;;11.77;;
53391;SDS011;41667;51.922;8.850;2024-03-08T11:06:05;21.65;;;10.45;;
53391;SDS011;41667;51.922;8.850;2024-03-08T11:08:32;15.23;;;9.43;;
53391;SDS011;41667;51.922;8.850;2024-03-08T11:10:58;19.88;;;12.07;;
53391;SDS011;41667;51.922;8.850;2024-03-08T11:13:33;22.13;;;11.00;;
53391;SDS011;41667;51.922;8.850;2024-03-08T11:16:00;20.10;;;11.48;;
53391;SDS011;41667;51.922;8.850;2024-03-08T11:18:26;18.45;;;9.60;;
53391;SDS011;41667;51.922;8.850;2024-03-08T11:20:53;18.65;;;10.55;;
53391;SDS011;41667;51.922;8.850;2024-03-08T11:23:22;21.83;;;11.40;;
53391;SDS011;41667;51.922;8.850;2024-03-08T11:25:48;23.75;;;12.00;;
53391;SDS011;41667;51.922;8.850;2024-03-08T11:28:20;17.02;;;10.27;;
53391;SDS011;41667;51.922;8.850;2024-03-08T11:33:28;18.85;;;10.60;;
53391;SDS011;41667;51.922;8.850;2024-03-08T11:38:44;18.15;;;9.18;;
53391;SDS011;41667;51.922;8.850;2024-03-08T11:41:13;14.20;;;8.45;;
53391;SDS011;41667;51.922;8.850;2024-03-08T11:43:39;19.95;;;9.75;;
53391;SDS011;41667;51.922;8.850;2024-03-08T11:46:13;15.20;;;9.35;;
53391;SDS011;41667;51.922;8.850;2024-03-08T11:48:39;14.68;;;9.45;;
53391;SDS011;41667;51.922;8.850;2024-03-08T11:51:07;17.27;;;8.57;;
53391;SDS011;41667;51.922;8.850;2024-03-08T11:53:32;15.02;;;9.63;;
53391;SDS011;41667;51.922;8.850;2024-03-08T11:56:07;15.57;;;8.45;;
53391;SDS011;41667;51.922;8.850;2024-03-08T11:58:37;13.63;;;8.90;;
53391;SDS011;41667;51.922;8.850;2024-03-08T12:01:05;12.60;;;7.97;;
53391;SDS011;41667;51.922;8.850;2024-03-08T12:03:32;11.52;;;7.93;;
53391;SDS011;41667;51.922;8.850;2024-03-08T12:06:00;18.00;;;10.63;;
53391;SDS011;41667;51.922;8.850;2024-03-08T12:08:27;13.93;;;8.80;;
53391;SDS011;41667;51.922;8.850;2024-03-08T12:10:53;8.80;;;5.93;;
53391;SDS011;41667;51.922;8.850;2024-03-08T12:13:24;15.40;;;8.60;;
53391;SDS011;41667;51.922;8.850;2024-03-08T12:15:50;14.68;;;8.50;;
53391;SDS011;41667;51.922;8.850;2024-03-08T12:18:16;13.27;;;8.77;;
53391;SDS011;41667;51.922;8.850;2024-03-08T12:20:41;14.25;;;8.50;;
53391;SDS011;41667;51.922;8.850;2024-03-08T12:23:14;16.95;;;9.60;;
53391;SDS011;41667;51.922;8.850;2024-03-08T12:25:41;17.35;;;8.10;;
53391;SDS011;41667;51.922;8.850;2024-03-08T12:28:10;13.93;;;9.48;;
53391;SDS011;41667;51.922;8.850;2024-03-08T12:30:44;13.50;;;8.98;;
53391;SDS011;41667;51.922;8.850;2024-03-08T12:33:11;13.88;;;7.15;;
53391;SDS011;41667;51.922;8.850;2024-03-08T12:35:37;13.52;;;8.68;;
53391;SDS011;41667;51.922;8.850;2024-03-08T12:38:03;15.35;;;9.45;;
53391;SDS011;41667;51.922;8.850;2024-03-08T12:40:29;20.63;;;9.85;;
53391;SDS011;41667;51.922;8.850;2024-03-08T12:42:56;18.73;;;10.52;;
53391;SDS011;41667;51.922;8.850;2024-03-08T12:45:22;14.93;;;9.43;;
53391;SDS011;41667;51.922;8.850;2024-03-08T12:47:49;16.50;;;8.70;;
53391;SDS011;41667;51.922;8.850;2024-03-08T12:50:18;16.05;;;9.90;;
53391;SDS011;41667;51.922;8.850;2024-03-08T12:52:43;21.15;;;10.40;;
53391;SDS011;41667;51.922;8.850;2024-03-08T12:55:09;17.35;;;9.57;;
53391;SDS011;41667;51.922;8.850;2024-03-08T12:57:35;16.08;;;6.85;;
53391;SDS011;41667;51.922;8.850;2024-03-08T13:00:03;17.95;;;10.00;;
53391;SDS011;41667;51.922;8.850;2024-03-08T13:02:29;15.57;;;10.20;;
53391;SDS011;41667;51.922;8.850;2024-03-08T13:04:56;17.10;;;10.88;;
53391;SDS011;41667;51.922;8.850;2024-03-08T13:07:23;17.42;;;10.40;;
53391;SDS011;41667;51.922;8.850;2024-03-08T13:12:18;16.25;;;9.60;;
53391;SDS011;41667;51.922;8.850;2024-03-08T13:14:45;22.60;;;12.07;;
53391;SDS011;41667;51.922;8.850;2024-03-08T13:17:10;19.75;;;10.93;;
53391;SDS011;41667;51.922;8.850;2024-03-08T13:19:36;18.15;;;9.85;;
53391;SDS011;41667;51.922;8.850;2024-03-08T13:22:03;21.92;;;11.00;;
53391;SDS011;41667;51.922;8.850;2024-03-08T13:24:32;20.77;;;11.23;;
53391;SDS011;41667;51.922;8.850;2024-03-08T13:26:58;18.77;;;10.73;;
53391;SDS011;41667;51.922;8.850;2024-03-08T13:29:24;14.18;;;8.57;;
53391;SDS011;41667;51.922;8.850;2024-03-08T13:31:50;17.70;;;11.00;;
53391;SDS011;41667;51.922;8.850;2024-03-08T13:34:17;20.45;;;11.25;;
53391;SDS011;41667;51.922;8.850;2024-03-08T13:36:43;20.75;;;10.80;;
53391;SDS011;41667;51.922;8.850;2024-03-08T13:39:09;18.73;;;10.73;;
53391;SDS011;41667;51.922;8.850;2024-03-08T13:41:40;18.37;;;10.23;;
53391;SDS011;41667;51.922;8.850;2024-03-08T13:44:06;18.58;;;10.20;;
53391;SDS011;41667;51.922;8.850;2024-03-08T13:46:32;17.92;;;10.80;;
53391;SDS011;41667;51.922;8.850;2024-03-08T13:48:57;15.38;;;9.90;;
53391;SDS011;41667;51.922;8.850;2024-03-08T13:51:30;14.55;;;8.68;;
53391;SDS011;41667;51.922;8.850;2024-03-08T13:53:57;17.05;;;9.98;;
53391;SDS011;41667;51.922;8.850;2024-03-08T13:56:22;15.40;;;9.25;;
53391;SDS011;41667;51.922;8.850;2024-03-08T13:58:47;12.25;;;8.20;;
53391;SDS011;41667;51.922;8.850;2024-03-08T14:01:13;14.00;;;8.02;;
53391;SDS011;41667;51.922;8.850;2024-03-08T14:03:38;16.50;;;9.70;;
53391;SDS011;41667;51.922;8.850;2024-03-08T14:06:06;17.58;;;9.60;;
53391;SDS011;41667;51.922;8.850;2024-03-08T14:08:32;15.02;;;8.93;;
53391;SDS011;41667;51.922;8.850;2024-03-08T14:10:58;17.08;;;9.30;;
53391;SDS011;41667;51.922;8.850;2024-03-08T14:13:23;16.15;;;8.65;;
53391;SDS011;41667;51.922;8.850;2024-03-08T14:15:50;16.13;;;9.13;;
53391;SDS011;41667;51.922;8.850;2024-03-08T14:18:15;14.25;;;8.10;;
53391;SDS011;41667;51.922;8.850;2024-03-08T14:20:40;15.77;;;8.50;;
53391;SDS011;41667;51.922;8.850;2024-03-08T14:23:07;20.92;;;11.52;;
53391;SDS011;41667;51.922;8.850;2024-03-08T14:25:33;19.50;;;10.77;;
53391;SDS011;41667;51.922;8.850;2024-03-08T14:27:58;16.83;;;9.50;;
53391;SDS011;41667;51.922;8.850;2024-03-08T14:30:27;15.70;;;9.73;;
53391;SDS011;41667;51.922;8.850;2024-03-08T14:33:00;22.77;;;12.10;;
53391;SDS011;41667;51.922;8.850;2024-03-08T14:35:35;20.38;;;11.32;;
53391;SDS011;41667;51.922;8.850;2024-03-08T14:38:01;18.13;;;11.25;;
53391;SDS011;41667;51.922;8.850;2024-03-08T14:40:26;17.08;;;10.02;;